Angastaco, Argentina
Current Conditions -  °F | °C
As of 9:00 PM on Monday 20 Oct 2014 (Local Time) from SASA Reporting Station
Broken Clouds Broken Clouds  
Wind Chill: 63°   Ceiling: 1200
Heat Index: 63°   Visibility: 6mi
Dew Point: 59°   Wind: 3mph
Humidity: 88%   Direction: 360°N
Pressure: 30.18"   Gusts: NA
Location:  25.94°S, 66°W
Report Text: SASA 210000Z 36003KT 9999 FEW008 BKN012BKN100 17/15 Q1022
Loading
Personal Weather Stations






























Interactive Weather Map
Tropical Storm Tracking
New forecast layout! Learn more

10-Day Weather Forecast

Advertisements
Track Severe Weather on mobile